Chamberlain Brothers Ranch, WY

09:09 AM MST die 22o November, anno 2014 (GMT -0700)
Douglas | Change Station
CLOSE
Current Station
Personal Weather Stations
Location: Douglas, WY
Elevation: 6096 ft
Nearby Weather Stations
Active Advisory: High Wind Warning

Elev 6096 ft 42.59 °N, 105.72 °W | Updated 5 seconds ago

Partialiter Nubila
Partialiter Nubila
44.8 °F
Feels Like 45 °F
N
0.0
Ventus Variabilis Ventus from Aquilo
Gusts 3.0 mph

Hodie
High -- | Low -- °F
--% Chance of Precip.
Yesterday
High -- | Low -- °F
Precip. -- in
7:03 AM 4:33 PM
New, 0% visible
Pressio 29.67 in
Visibilitas 10.0 milia passuum
Clouds Serena
Frigus Venti 45 °F
Frigus in quo Ros apparet 21 °F
Umor 39%
Rainfall 0.00 in
Snow Depth Not available.
UV 1 out of 12
Pollen .10 out of 12
Air Quality Not available.
Flu Activity Not available.
METAR KCPR 221553Z 21022G29KT 10SM CLR 05/M06 A2967 RMK AO2 PK WND 21034/1508 SLP045 T00501061

More Conditions Fewer Conditions

Pressio 29.67 in
Visibilitas 10.0 milia passuum
Clouds Serena
Frigus Venti 45 °F
Frigus in quo Ros apparet 21 °F
Umor 39%
Rainfall 0.00 in
Snow Depth Not available.
UV 1 out of 12
Pollen .10 out of 12
Air Quality Not available.
Flu Activity Not available.
METAR KCPR 221553Z 21022G29KT 10SM CLR 05/M06 A2967 RMK AO2 PK WND 21034/1508 SLP045 T00501061

More Conditions Fewer Conditions

10-Day Weather Forecast

Almanac

Astronomy

Nov. 22, 2014 Rise Set
Actual Time
Civil Twilight
Nautical Twilight
Astronomical Twilight
Moon
Length Of Visible Light
Length of Day
Tomorrow will be .
, % of the Moon is Illuminated

Today's Extremes

State Highs State Lows

Community

WunderPhotos

Upload Photos

1,772,841 photos uploaded!

WunderBlogs® & News

Nearby

Air Quality

  Air Quality AQ Index Pollutant
Not available.

Snow Depth

Station Depth Elevation

Earthquake Activity

City Distance Mag. Time & Date
Minimum magnitude displayed is 2.5.

Coastal Water Temperatures

Locus Calor

Nearby Weather Stations